Benton Ridge, OH (45816)

8:56 PM EDT on August 20, 2014 (GMT -0400)
Findlay | Change Station
CLOSE
Current Station
Airport
Location: Findlay,
Elevation: 810 ft
Nearby Weather Stations

Elev 810 ft 41.01 °N, 83.67 °W | Updated 3 minutes ago

Clear
Clear
74 °F
Feels Like 74 °F
N
4
Wind Variable Wind from South

Today
High -- | Low -- °F
--% Chance of Precip.
Yesterday
High -- | Low -- °F
Precip. -- in
6:49 AM 8:26 PM
Waning Crescent, 18% visible
Pressure 29.88 in
Visibility 10.0 miles
Clouds Clear
Dew Point 67 °F
Humidity 79%
Rainfall 0.30 in
Snow Depth Not available.
UV 0 out of 12
Pollen 9.40 out of 12
Air Quality Not available.
Flu Activity Not available.
METAR KFDY 210053Z AUTO 18003KT 10SM CLR 23/19 A2991 RMK AO2 SLP119 T02330194

More Conditions Fewer Conditions

Pressure 29.88 in
Visibility 10.0 miles
Clouds Clear
Dew Point 67 °F
Humidity 79%
Rainfall 0.30 in
Snow Depth Not available.
UV 0 out of 12
Pollen 9.40 out of 12
Air Quality Not available.
Flu Activity Not available.
METAR KFDY 210053Z AUTO 18003KT 10SM CLR 23/19 A2991 RMK AO2 SLP119 T02330194

More Conditions Fewer Conditions

10-Day Weather Forecast

Almanac

Astronomy

Aug. 20, 2014 Rise Set
Actual Time 6:49 AM EDT 8:26 PM EDT
Civil Twilight 6:20 AM EDT 8:55 PM EDT
Nautical Twilight 5:45 AM EDT 9:30 PM EDT
Astronomical Twilight 5:08 AM EDT 10:07 PM EDT
Moon 2:28 AM EDT (8/20) 5:11 PM EDT (8/20)
Length of Visible Light 14h 34m
Length of Day
13h 36m
Tomorrow will be 2m 30s shorter.
Waning Crescent, 18% of the Moon is Illuminated
Today
Waning Crescent
Aug 25
New
Sep 2
First Quarter
Sep 8
Full
Sep 15
Last Quarter

Today's Extremes

State Highs State Lows

Community

WunderPhotos

Upload Photos

1,745,823 photos uploaded!

WunderBlogs® & News

Nearby

Snow Depth

Station Depth Elevation
No new snow has been reported.

Earthquake Activity

City Distance Mag. Time & Date
No recent earthquake activity has been reported nearby.
Minimum magnitude displayed is 2.5.

Coastal Water Temperatures

Place Temperature
No Stations Reporting

Nearby Weather Stations